»·PEaware :: N232KS KRKS-KPHX

N232KS :: KRKS-KPHX

FLIGHT INFORMATION

Flight Status: Arrived
Operator: Privately registered:
United States
More flights under this callsign
Pilot: Tyler J. (19619)
Aircraft: CESSNA 550 CITATION 2/S2/BRAVO
(C550)
More flights by this aircraft type
Origin: KRKS Rock Springs-Sweetwater
United States
Destination: KPHX Phoenix Sky Harbor Intl
United States
More flights between these airports :: More routes between these airports
Route: +OCS V391 VEL V208 HVE INW EAGUL6
File this flight plan on PilotEdge
Remarks:
Altitude:
(Current/Filed)
34,000ft
Speed:
(Current/Filed)
430kts
Departed: 28-Sep-18 10:34 AM
Arrived: 28-Sep-18 12:08 PM
Distance/Time
Traveled:
510nm/1:33
Distance/Time
To Go:
Arrived

Flight Plot

Page will automatically refresh every two minutes.

Flight plan parsing failed; only flown route is shown


Map Options




Map Legend


Flown Route
Filed Route
Departure Airport
Arrival Airport
Navaid (VOR, NDB)
Fix

Horizontal Profiles

Position Reports

Time Latitude Longitude Heading Altitude Ground
Speed
28-Sep-18 09:34 41.599831 -109.066785 45 6763ft 0kts
28-Sep-18 09:35 41.599831 -109.066785 45 6763ft 0kts
28-Sep-18 09:36 41.599831 -109.066785 45 6763ft 0kts
28-Sep-18 09:37 41.599831 -109.066785 45 6763ft 0kts
28-Sep-18 09:38 41.599831 -109.066785 45 6763ft 0kts
28-Sep-18 09:39 41.599831 -109.066785 45 6763ft 0kts
28-Sep-18 09:40 41.599831 -109.066785 45 6763ft 0kts
28-Sep-18 09:41 41.599831 -109.066785 45 6763ft 0kts
28-Sep-18 09:42 41.599831 -109.066785 45 6763ft 0kts
28-Sep-18 09:43 41.599831 -109.066785 45 6763ft 0kts
28-Sep-18 09:44 41.599831 -109.066785 45 6763ft 0kts
28-Sep-18 09:45 41.599831 -109.066785 45 6763ft 0kts
28-Sep-18 09:46 41.599831 -109.066785 45 6763ft 0kts
28-Sep-18 09:47 41.599831 -109.066785 45 6763ft 0kts
28-Sep-18 09:48 41.599831 -109.066785 45 6763ft 0kts
28-Sep-18 09:49 41.599831 -109.066785 45 6763ft 0kts
28-Sep-18 09:50 41.599831 -109.066785 45 6763ft 0kts
28-Sep-18 09:51 41.599831 -109.066785 45 6763ft 0kts
28-Sep-18 09:52 41.599831 -109.066785 45 6763ft 0kts
28-Sep-18 09:53 41.599831 -109.066785 45 6763ft 0kts
28-Sep-18 09:54 41.599831 -109.066785 45 6763ft 0kts
28-Sep-18 09:55 41.599831 -109.066785 45 6763ft 0kts
28-Sep-18 09:56 41.599831 -109.066785 45 6763ft 0kts
28-Sep-18 09:57 41.599831 -109.066785 45 6763ft 0kts
28-Sep-18 09:58 41.599831 -109.066785 45 6763ft 0kts
28-Sep-18 09:59 41.599831 -109.066785 45 6763ft 0kts
28-Sep-18 10:00 41.599831 -109.066785 45 6763ft 0kts
28-Sep-18 10:01 41.599831 -109.066785 45 6763ft 0kts
28-Sep-18 10:02 41.599831 -109.066785 45 6763ft 0kts
28-Sep-18 10:03 41.599831 -109.066785 45 6763ft 0kts
28-Sep-18 10:04 41.599831 -109.066785 45 6763ft 0kts
28-Sep-18 10:05 41.599831 -109.066785 45 6763ft 0kts
28-Sep-18 10:06 41.599831 -109.066785 45 6763ft 0kts
28-Sep-18 10:07 41.599831 -109.066785 45 6763ft 0kts
28-Sep-18 10:08 41.599831 -109.066785 45 6763ft 0kts
28-Sep-18 10:09 41.599831 -109.066785 45 6763ft 0kts
28-Sep-18 10:10 41.599831 -109.066785 45 6763ft 0kts
28-Sep-18 10:11 41.599831 -109.066785 45 6763ft 0kts
28-Sep-18 10:12 41.599831 -109.066785 45 6763ft 0kts
28-Sep-18 10:13 41.599831 -109.066785 45 6763ft 0kts
28-Sep-18 10:14 41.599831 -109.066785 45 6763ft 0kts
28-Sep-18 10:15 41.599831 -109.066785 45 6763ft 0kts
28-Sep-18 10:16 41.599831 -109.066785 45 6763ft 0kts
28-Sep-18 10:17 41.599831 -109.066785 45 6763ft 0kts
28-Sep-18 10:18 41.599831 -109.066785 45 6763ft 0kts
28-Sep-18 10:19 41.599831 -109.066785 45 6763ft 0kts
28-Sep-18 10:20 41.599831 -109.066785 45 6763ft 0kts
28-Sep-18 10:21 41.599831 -109.066785 45 6763ft 0kts
28-Sep-18 10:22 41.599831 -109.066785 45 6763ft 0kts
28-Sep-18 10:23 41.599831 -109.066785 45 6763ft 0kts
28-Sep-18 10:24 41.599831 -109.066785 45 6763ft 0kts
28-Sep-18 10:25 41.599831 -109.066785 45 6763ft 0kts
28-Sep-18 10:26 41.599831 -109.066785 45 6763ft 0kts
28-Sep-18 10:27 41.599831 -109.066785 45 6763ft 0kts
28-Sep-18 10:28 41.599831 -109.066785 45 6763ft 0kts
28-Sep-18 10:29 41.599832 -109.066783 45 6763ft 0kts
28-Sep-18 10:30 41.599002 -109.066879 225 6763ft 9kts
28-Sep-18 10:31 41.596528 -109.069272 189 6763ft 18kts
28-Sep-18 10:32 41.597211 -109.074718 281 6763ft 16kts
28-Sep-18 10:33 41.597984 -109.079298 282 6763ft 12kts
28-Sep-18 10:34 41.598356 -109.081714 232 6763ft 0kts
28-Sep-18 10:35 41.598339 -109.081738 225 6763ft 2kts
28-Sep-18 10:36 41.595675 -109.070417 104 6763ft 113kts
28-Sep-18 10:37 41.587667 -109.027207 69 8961ft 116kts
28-Sep-18 10:38 41.608204 -108.975856 61 10261ft 202kts
28-Sep-18 10:39 41.615117 -108.893334 138 10872ft 280kts
28-Sep-18 10:40 41.560614 -108.878826 234 12307ft 258kts
28-Sep-18 10:41 41.540743 -108.970004 225 13520ft 273kts
28-Sep-18 10:42 41.466947 -109.044539 208 16334ft 300kts
28-Sep-18 10:43 41.404655 -109.082032 205 18850ft 292kts
28-Sep-18 10:44 41.326830 -109.118614 202 21277ft 298kts
28-Sep-18 10:45 41.247767 -109.151694 201 23444ft 300kts
28-Sep-18 10:46 41.166224 -109.184612 202 24985ft 314kts
28-Sep-18 10:47 41.081312 -109.218402 202 26458ft 323kts
28-Sep-18 10:48 40.992661 -109.253546 202 27628ft 338kts
28-Sep-18 10:49 40.901114 -109.289619 202 28931ft 348kts
28-Sep-18 10:50 40.806968 -109.326597 202 30241ft 357kts
28-Sep-18 10:51 40.710746 -109.364265 202 31510ft 363kts
28-Sep-18 10:52 40.612996 -109.402426 202 32561ft 369kts
28-Sep-18 10:53 40.513829 -109.441024 201 33440ft 374kts
28-Sep-18 10:54 40.413430 -109.480327 205 34037ft 379kts
28-Sep-18 10:55 40.346902 -109.578716 246 34221ft 369kts
28-Sep-18 10:56 40.302397 -109.701797 249 34215ft 379kts
28-Sep-18 10:57 40.257460 -109.829010 248 34210ft 387kts
28-Sep-18 10:58 40.211245 -109.957037 248 34201ft 390kts
28-Sep-18 10:59 40.164152 -110.085163 244 34194ft 393kts
28-Sep-18 11:00 40.091481 -110.194413 227 34190ft 403kts
28-Sep-18 11:01 40.007561 -110.292204 225 34184ft 405kts
28-Sep-18 11:02 39.922910 -110.388774 225 34182ft 405kts
28-Sep-18 11:03 39.838062 -110.485719 225 34182ft 405kts
28-Sep-18 11:04 39.755739 -110.579773 225 34181ft 405kts
28-Sep-18 11:05 39.670940 -110.676452 225 34180ft 405kts
28-Sep-18 11:06 39.574491 -110.749861 192 34181ft 423kts
28-Sep-18 11:07 39.455770 -110.752510 181 34178ft 429kts
28-Sep-18 11:08 39.336239 -110.744397 180 34171ft 429kts
28-Sep-18 11:09 39.217216 -110.737073 180 34167ft 429kts
28-Sep-18 11:10 39.097772 -110.730821 180 34167ft 428kts
28-Sep-18 11:11 38.978857 -110.725130 181 34169ft 428kts
28-Sep-18 11:12 38.859778 -110.719652 181 34168ft 428kts
28-Sep-18 11:13 38.740588 -110.714255 181 34181ft 428kts
28-Sep-18 11:14 38.621497 -110.708903 180 34194ft 428kts
28-Sep-18 11:15 38.502553 -110.703575 180 34198ft 428kts
28-Sep-18 11:16 38.383662 -110.701076 183 34209ft 427kts
28-Sep-18 11:17 38.264903 -110.703978 184 34214ft 427kts
28-Sep-18 11:18 38.149350 -110.707475 184 34213ft 427kts
28-Sep-18 11:19 38.030706 -110.711052 184 34222ft 427kts
28-Sep-18 11:20 37.911747 -110.714585 184 34233ft 427kts
28-Sep-18 11:21 37.793232 -110.718070 184 34234ft 427kts
28-Sep-18 11:22 37.674455 -110.721539 184 34249ft 427kts
28-Sep-18 11:23 37.555752 -110.725122 184 34256ft 427kts
28-Sep-18 11:24 37.436899 -110.728727 184 34254ft 427kts
28-Sep-18 11:25 37.318089 -110.732311 184 34247ft 427kts
28-Sep-18 11:26 37.199274 -110.735803 184 34229ft 427kts
28-Sep-18 11:27 37.080183 -110.738985 184 34223ft 426kts
28-Sep-18 11:28 36.961613 -110.742214 184 34205ft 426kts
28-Sep-18 11:29 36.843288 -110.745510 184 34189ft 425kts
28-Sep-18 11:30 36.725177 -110.748832 184 34187ft 425kts
28-Sep-18 11:31 36.611181 -110.752049 184 34181ft 425kts
28-Sep-18 11:32 36.492937 -110.755383 184 34176ft 425kts
28-Sep-18 11:33 36.374670 -110.758712 184 34173ft 425kts
28-Sep-18 11:34 36.256345 -110.762033 184 34168ft 425kts
28-Sep-18 11:35 36.138216 -110.765338 184 34167ft 425kts
28-Sep-18 11:36 36.019674 -110.768645 184 34167ft 425kts
28-Sep-18 11:37 35.901498 -110.771932 183 34167ft 425kts
28-Sep-18 11:38 35.783293 -110.775209 183 34175ft 425kts
28-Sep-18 11:39 35.664959 -110.778481 183 34180ft 425kts
28-Sep-18 11:40 35.546875 -110.781736 183 34187ft 424kts
28-Sep-18 11:41 35.428739 -110.784984 183 34194ft 424kts
28-Sep-18 11:42 35.310895 -110.788214 183 34194ft 424kts
28-Sep-18 11:43 35.192656 -110.791445 183 34195ft 424kts
28-Sep-18 11:44 35.074490 -110.796538 189 33685ft 427kts
28-Sep-18 11:45 34.960686 -110.823903 194 31858ft 410kts
28-Sep-18 11:46 34.850058 -110.854444 197 30304ft 397kts
28-Sep-18 11:47 34.748949 -110.889604 198 29394ft 371kts
28-Sep-18 11:48 34.648684 -110.922740 197 27109ft 385kts
28-Sep-18 11:49 34.544970 -110.955545 196 24881ft 412kts
28-Sep-18 11:50 34.436511 -110.989090 196 22583ft 391kts
28-Sep-18 11:51 34.332155 -111.021190 195 20285ft 384kts
28-Sep-18 11:52 34.233482 -111.051433 195 18349ft 330kts
28-Sep-18 11:53 34.152841 -111.078696 208 18262ft 281kts
28-Sep-18 11:54 34.092968 -111.135799 225 18063ft 272kts
28-Sep-18 11:55 34.040191 -111.200655 227 17862ft 269kts
28-Sep-18 11:56 33.987783 -111.267391 227 16962ft 286kts
28-Sep-18 11:57 33.931242 -111.339637 227 15632ft 302kts
28-Sep-18 11:58 33.868740 -111.412361 219 13807ft 324kts
28-Sep-18 11:59 33.796805 -111.476953 215 12391ft 311kts
28-Sep-18 12:00 33.727970 -111.535628 215 11988ft 297kts
28-Sep-18 12:01 33.661102 -111.592835 216 11161ft 282kts
28-Sep-18 12:02 33.607089 -111.640699 218 7903ft 227kts
28-Sep-18 12:03 33.562403 -111.682937 218 5585ft 177kts
28-Sep-18 12:04 33.518460 -111.724718 218 4567ft 247kts
28-Sep-18 12:05 33.464172 -111.777169 218 4483ft 253kts
28-Sep-18 12:06 33.425936 -111.843712 274 3527ft 252kts
28-Sep-18 12:07 33.428799 -111.912651 269 2647ft 178kts
28-Sep-18 12:08 33.429009 -111.967701 269 1714ft 144kts
28-Sep-18 12:09 33.428838 -112.012580 270 1138ft 82kts
28-Sep-18 12:10 33.428026 -112.016528 185 1138ft 1kts
28-Sep-18 12:11 33.427522 -112.021772 188 1138ft 12kts
28-Sep-18 12:12 33.425522 -112.021620 257 1138ft 0kts
28-Sep-18 12:13 33.425522 -112.021620 257 1138ft 0kts
28-Sep-18 12:14 33.425522 -112.021620 257 1138ft 0kts
28-Sep-18 12:15 33.425522 -112.021620 257 1138ft 0kts
28-Sep-18 12:16 33.425522 -112.021620 257 1138ft 0kts
28-Sep-18 12:17 33.425522 -112.021620 257 1138ft 0kts
28-Sep-18 12:18 33.425522 -112.021620 257 1138ft 0kts
28-Sep-18 12:19 33.425522 -112.021620 257 1138ft 0kts
28-Sep-18 12:20 33.425522 -112.021620 257 1138ft 0kts
28-Sep-18 12:21 33.425522 -112.021620 257 1138ft 0kts

Navigation Log

Ident Type
Flight plan parsing failed, navigation log unavailable